Hovedside
METAR-TAF:

METAR-TAF

Lufthavner :

Hermiston Municipal Airport

Hermiston, Oregon, USA

breddegrad: 45-49-33N, lengdegrad: 119-15-40W, høyde over havet: 194 m

Gjeldene værobservasjon

Denne rapporten ble laget for 14 minutter siden, klokken 22:11 UTC
Vind 11 kt fra Sør-sørøst
Temperatur 7°C
Luftfuktighet 87%
Trykk 1012 hPa
Sikt: 4.8 km
Brutte skyer i en høyde av 4400 ft
Overskyet i en høyde av 8500 ft
lett regn, dis

METAR: KHRI 122211Z AUTO 16011KT 3SM -RA BR BKN044 OVC085 07/05 A2989 RMK AO2 PRESFR P0002 T00670050

Tid: 14:25 (22:25 UTC)


TAF: fraværende

Værobservasjoner og værvarsel for over 4000 flyplasser (METAR- og TAF-rapporter).

Tilgjengelige stasjoner er representert av de røde og gule prikkene på kartet.

Hold musepekeren over prikken for å se navnet på stasjonen.

Klikk så for å se værobservasjoner og -varsler.

For å forandre kartet kan du klikke på den grønne knappen med svart kryss for å zoome inn, på den grønne knappen med strek for å zoome ut, eller på de grønne pilene for å se tilstøtende kart.


METAR-TAF: